createdAt,value
2023-09-09T00:05:18.327Z,22.80
2023-09-09T00:15:17.292Z,22.70
2023-09-09T00:25:16.266Z,22.60
2023-09-09T00:35:15.351Z,22.50
2023-09-09T00:45:14.372Z,22.30
2023-09-09T00:55:13.316Z,22.00
2023-09-09T01:05:12.454Z,21.80
2023-09-09T01:15:11.341Z,21.60
2023-09-09T01:25:10.837Z,21.30
2023-09-09T01:35:09.522Z,21.10
2023-09-09T01:45:08.554Z,21.00
2023-09-09T01:55:07.665Z,21.00
2023-09-09T02:05:07.645Z,20.90
2023-09-09T02:15:06.558Z,20.70
2023-09-09T02:25:05.440Z,20.60
2023-09-09T02:35:04.480Z,20.50
2023-09-09T02:45:03.935Z,20.20
2023-09-09T02:55:02.692Z,20.10
2023-09-09T03:05:01.817Z,19.90
2023-09-09T03:15:00.718Z,19.70
2023-09-09T03:24:59.496Z,19.70
2023-09-09T03:34:58.531Z,19.70
2023-09-09T03:44:59.042Z,19.60
2023-09-09T03:54:58.551Z,19.60
2023-09-09T04:04:57.534Z,19.40
2023-09-09T04:14:56.561Z,19.30
2023-09-09T04:24:55.555Z,19.20
2023-09-09T04:34:54.690Z,19.10
2023-09-09T04:44:53.746Z,19.10
2023-09-09T04:54:52.686Z,19.00
2023-09-09T05:04:51.846Z,18.90
2023-09-09T05:14:50.570Z,18.90
2023-09-09T05:24:49.491Z,18.90
2023-09-09T05:34:48.874Z,18.90
2023-09-09T05:44:47.887Z,19.00
2023-09-09T05:54:46.699Z,19.10
2023-09-09T06:04:45.662Z,19.30
2023-09-09T06:14:44.909Z,19.50
2023-09-09T06:24:44.335Z,19.70
2023-09-09T06:34:43.615Z,19.90
2023-09-09T06:44:42.595Z,20.20
2023-09-09T06:54:41.549Z,20.50
2023-09-09T07:04:40.602Z,20.80
2023-09-09T07:14:41.791Z,21.20
2023-09-09T07:24:40.569Z,21.70
2023-09-09T07:34:39.659Z,22.20
2023-09-09T07:44:38.579Z,22.60
2023-09-09T07:54:37.580Z,23.00
2023-09-09T08:04:36.684Z,23.50
2023-09-09T08:14:35.593Z,23.80
2023-09-09T08:24:34.606Z,24.20
2023-09-09T08:34:33.705Z,24.60
2023-09-09T08:44:32.611Z,25.00
2023-09-09T08:54:31.629Z,25.60
2023-09-09T09:04:30.673Z,25.90
2023-09-09T09:14:30.378Z,26.20
2023-09-09T09:24:30.124Z,26.50
2023-09-09T09:34:28.634Z,26.70
2023-09-09T09:44:27.707Z,27.00
2023-09-09T09:54:26.671Z,27.30
2023-09-09T10:04:25.759Z,27.60
2023-09-09T10:14:24.709Z,28.00
2023-09-09T10:24:23.727Z,28.30
2023-09-09T10:34:22.688Z,28.50
2023-09-09T10:44:21.790Z,28.90
2023-09-09T10:54:20.720Z,29.10
2023-09-09T11:04:20.153Z,29.30
2023-09-09T11:14:18.808Z,29.60
2023-09-09T11:24:17.935Z,30.00
2023-09-09T11:34:16.850Z,30.20
2023-09-09T11:44:15.768Z,30.40
2023-09-09T11:54:14.757Z,30.80
2023-09-09T12:04:14.008Z,30.90
2023-09-09T12:14:12.881Z,31.30
2023-09-09T12:24:11.880Z,31.50
2023-09-09T12:34:10.780Z,31.60
2023-09-09T12:44:10.275Z,31.70
2023-09-09T12:54:08.885Z,31.90
2023-09-09T13:04:07.795Z,32.00
2023-09-09T13:14:13.201Z,32.10
2023-09-09T13:24:07.825Z,32.40
2023-09-09T13:34:06.843Z,32.50
2023-09-09T13:44:05.876Z,32.50
2023-09-09T13:54:04.937Z,32.70
2023-09-09T14:04:03.995Z,32.60
2023-09-09T14:14:02.863Z,32.60
2023-09-09T14:24:01.956Z,32.70
2023-09-09T14:34:00.862Z,32.70
2023-09-09T14:43:59.943Z,32.70
2023-09-09T14:53:58.913Z,32.60
2023-09-09T15:03:58.147Z,32.40
2023-09-09T15:13:56.958Z,32.30
2023-09-09T15:23:55.911Z,32.10
2023-09-09T15:33:55.169Z,31.90
2023-09-09T15:43:54.668Z,31.80
2023-09-09T15:53:53.948Z,31.50
2023-09-09T16:03:53.050Z,31.20
2023-09-09T16:13:52.221Z,30.90
2023-09-09T16:23:50.956Z,30.70
2023-09-09T16:33:50.036Z,30.40
2023-09-09T16:43:49.098Z,30.20
2023-09-09T16:53:47.982Z,29.90
2023-09-09T17:03:47.080Z,29.60
2023-09-09T17:13:46.041Z,29.40
2023-09-09T17:23:45.028Z,29.10
2023-09-09T17:33:44.005Z,28.70
2023-09-09T17:43:43.111Z,28.20
2023-09-09T17:53:42.059Z,27.50
2023-09-09T18:03:41.092Z,27.00
2023-09-09T18:13:40.060Z,26.50
2023-09-09T18:23:39.415Z,26.00
2023-09-09T18:33:39.356Z,25.60
2023-09-09T18:43:38.154Z,25.20
2023-09-09T18:53:37.092Z,24.90
2023-09-09T19:03:36.395Z,24.60
2023-09-09T19:13:35.160Z,24.30
2023-09-09T19:23:34.128Z,24.00
2023-09-09T19:33:33.151Z,23.90
2023-09-09T19:43:32.162Z,23.90
2023-09-09T19:53:31.125Z,23.70
2023-09-09T20:03:30.234Z,23.50
2023-09-09T20:13:29.186Z,23.40
2023-09-09T20:23:28.738Z,23.20
2023-09-09T20:33:27.159Z,23.20
2023-09-09T20:43:26.463Z,23.10
2023-09-09T20:53:25.222Z,22.90
2023-09-09T21:03:24.244Z,22.90
2023-09-09T21:13:23.186Z,22.80
2023-09-09T21:23:22.185Z,22.70
2023-09-09T21:33:21.183Z,22.60
2023-09-09T21:43:20.312Z,22.40
2023-09-09T21:53:19.487Z,22.30
2023-09-09T22:03:18.349Z,22.20
2023-09-09T22:13:17.268Z,22.10
2023-09-09T22:23:16.211Z,22.10
2023-09-09T22:33:15.232Z,21.90
2023-09-09T22:43:14.239Z,21.80
2023-09-09T22:53:13.335Z,21.70
2023-09-09T23:03:12.427Z,21.70
2023-09-09T23:13:11.289Z,21.50
2023-09-09T23:23:10.278Z,21.40
2023-09-09T23:33:09.291Z,21.40
2023-09-09T23:43:08.280Z,21.20
2023-09-09T23:53:07.300Z,21.10
